Wetterdaten: Woche 15.07.13 - 21.07.13 (KW29)
Datum Zeit Temperatur Luftfeuchte Luftdruck Niederschlag Windrichtung Sonnenschein Solar Wind
15.07.2013 00:00 16,4 C 70 % 1018,7 hPa 0,0 l/m N 0,00 h 0 W/m 1,1 km/h (0 Bft)
15.07.2013 01:00 15,5 C 77 % 1018,6 hPa 0,0 l/m N 0,00 h 0 W/m 0,1 km/h (0 Bft)
15.07.2013 02:00 15,7 C 77 % 1018,3 hPa 0,0 l/m N 0,00 h 0 W/m 2,5 km/h (1 Bft)
15.07.2013 03:00 15,1 C 79 % 1018,1 hPa 0,0 l/m N 0,00 h 0 W/m 1,5 km/h (1 Bft)
15.07.2013 04:00 13,8 C 84 % 1017,8 hPa 0,0 l/m N 0,00 h 0 W/m 1,3 km/h (1 Bft)
15.07.2013 05:00 13,4 C 85 % 1017,8 hPa 0,0 l/m N 0,08 h 8 W/m 1,1 km/h (0 Bft)
15.07.2013 06:00 12,6 C 90 % 1018,2 hPa 0,0 l/m N 0,00 h 33 W/m 0,0 km/h (0 Bft)
15.07.2013 07:00 13,7 C 89 % 1018,7 hPa 0,0 l/m N 0,25 h 129 W/m 0,4 km/h (0 Bft)
15.07.2013 08:00 16,9 C 80 % 1018,9 hPa 0,0 l/m NO 1,00 h 301 W/m 5,3 km/h (1 Bft)
15.07.2013 09:00 19,1 C 75 % 1018,8 hPa 0,0 l/m N-NO 1,00 h 447 W/m 4,9 km/h (1 Bft)
15.07.2013 10:00 21,0 C 66 % 1018,8 hPa 0,0 l/m N 0,92 h 597 W/m 8,4 km/h (2 Bft)
15.07.2013 11:00 22,1 C 61 % 1018,9 hPa 0,0 l/m NW 0,75 h 602 W/m 10,6 km/h (2 Bft)
15.07.2013 12:00 23,0 C 55 % 1018,9 hPa 0,0 l/m N-NO 0,83 h 758 W/m 13,4 km/h (3 Bft)
15.07.2013 13:00 24,2 C 46 % 1018,6 hPa 0,0 l/m N-NO 1,00 h 890 W/m 13,0 km/h (3 Bft)
15.07.2013 14:00 25,2 C 40 % 1018,4 hPa 0,0 l/m N-NW 1,00 h 863 W/m 13,8 km/h (3 Bft)
15.07.2013 15:00 25,9 C 38 % 1018,3 hPa 0,0 l/m N-NO 1,00 h 794 W/m 14,1 km/h (3 Bft)
15.07.2013 16:00 25,9 C 38 % 1018,4 hPa 0,0 l/m N-NO 1,00 h 685 W/m 17,0 km/h (3 Bft)
15.07.2013 17:00 25,5 C 38 % 1018,2 hPa 0,0 l/m N-NO 1,00 h 543 W/m 16,1 km/h (3 Bft)
15.07.2013 18:00 24,6 C 39 % 1018,2 hPa 0,0 l/m N-NO 1,00 h 374 W/m 15,7 km/h (3 Bft)
15.07.2013 19:00 23,5 C 39 % 1018,5 hPa 0,0 l/m N-NO 1,00 h 206 W/m 13,2 km/h (3 Bft)
15.07.2013 20:00 21,4 C 44 % 1018,9 hPa 0,0 l/m N-NO 0,25 h 42 W/m 8,6 km/h (2 Bft)
15.07.2013 21:00 19,0 C 55 % 1019,4 hPa 0,0 l/m N-NO 0,00 h 7 W/m 4,5 km/h (1 Bft)
15.07.2013 22:00 17,1 C 65 % 1019,9 hPa 0,0 l/m N-NO 0,00 h 0 W/m 4,8 km/h (1 Bft)
15.07.2013 23:00 16,0 C 70 % 1020,2 hPa 0,0 l/m N-NO 0,00 h 0 W/m 2,7 km/h (1 Bft)
16.07.2013 00:00 15,0 C 76 % 1020,3 hPa 0,0 l/m N 0,00 h 0 W/m 0,9 km/h (0 Bft)
16.07.2013 01:00 14,3 C 79 % 1020,4 hPa 0,0 l/m N 0,00 h 0 W/m 1,9 km/h (1 Bft)
16.07.2013 02:00 13,9 C 80 % 1020,4 hPa 0,0 l/m N 0,00 h 0 W/m 1,5 km/h (1 Bft)
16.07.2013 03:00 13,7 C 80 % 1020,0 hPa 0,0 l/m N-NO 0,00 h 0 W/m 2,8 km/h (1 Bft)
16.07.2013 04:00 13,1 C 80 % 1019,8 hPa 0,0 l/m N 0,00 h 0 W/m 2,0 km/h (1 Bft)
16.07.2013 05:00 12,4 C 84 % 1019,8 hPa 0,0 l/m N 0,00 h 7 W/m 1,7 km/h (1 Bft)
16.07.2013 06:00 12,6 C 83 % 1019,8 hPa 0,0 l/m N-NO 0,00 h 36 W/m 2,8 km/h (1 Bft)
16.07.2013 07:00 14,3 C 77 % 1019,8 hPa 0,0 l/m N-NO 0,58 h 162 W/m 7,2 km/h (2 Bft)
16.07.2013 08:00 16,6 C 70 % 1019,9 hPa 0,0 l/m NO 1,00 h 324 W/m 8,3 km/h (2 Bft)
16.07.2013 09:00 19,4 C 60 % 1020,0 hPa 0,0 l/m NO 1,00 h 490 W/m 11,0 km/h (2 Bft)
16.07.2013 10:00 21,6 C 50 % 1019,8 hPa 0,0 l/m O-NO 1,00 h 636 W/m 15,3 km/h (3 Bft)
16.07.2013 11:00 23,2 C 46 % 1019,6 hPa 0,0 l/m O 1,00 h 768 W/m 17,6 km/h (3 Bft)
16.07.2013 12:00 24,5 C 42 % 1019,4 hPa 0,0 l/m O-SO 1,00 h 849 W/m 17,4 km/h (3 Bft)
16.07.2013 13:00 25,2 C 40 % 1019,0 hPa 0,0 l/m O 1,00 h 884 W/m 14,2 km/h (3 Bft)
16.07.2013 14:00 26,1 C 39 % 1018,6 hPa 0,0 l/m O-NO 1,00 h 867 W/m 14,5 km/h (3 Bft)
16.07.2013 15:00 27,0 C 36 % 1018,1 hPa 0,0 l/m O 1,00 h 799 W/m 14,2 km/h (3 Bft)
16.07.2013 16:00 27,6 C 34 % 1017,8 hPa 0,0 l/m O-SO 1,00 h 694 W/m 13,0 km/h (3 Bft)
16.07.2013 17:00 28,2 C 32 % 1017,6 hPa 0,0 l/m O-SO 1,00 h 562 W/m 14,1 km/h (3 Bft)
16.07.2013 18:00 27,5 C 33 % 1017,3 hPa 0,0 l/m O-NO 1,00 h 396 W/m 12,4 km/h (3 Bft)
16.07.2013 19:00 26,2 C 37 % 1017,3 hPa 0,0 l/m O-NO 1,00 h 216 W/m 11,8 km/h (2 Bft)
16.07.2013 20:00 24,0 C 45 % 1017,6 hPa 0,0 l/m O-NO 0,25 h 42 W/m 6,1 km/h (2 Bft)
16.07.2013 21:00 21,5 C 55 % 1017,7 hPa 0,0 l/m NO 0,00 h 7 W/m 6,8 km/h (2 Bft)
16.07.2013 22:00 19,0 C 65 % 1018,0 hPa 0,0 l/m N 0,00 h 0 W/m 1,9 km/h (1 Bft)
16.07.2013 23:00 17,4 C 70 % 1018,0 hPa 0,0 l/m N 0,00 h 0 W/m 1,9 km/h (1 Bft)
17.07.2013 00:00 16,3 C 74 % 1018,1 hPa 0,0 l/m N 0,00 h 0 W/m 1,5 km/h (1 Bft)
17.07.2013 01:00 15,5 C 76 % 1018,3 hPa 0,0 l/m N 0,00 h 0 W/m 1,7 km/h (1 Bft)
17.07.2013 02:00 15,2 C 76 % 1018,1 hPa 0,0 l/m NO 0,00 h 0 W/m 5,9 km/h (2 Bft)
17.07.2013 03:00 14,8 C 78 % 1018,1 hPa 0,0 l/m N 0,00 h 0 W/m 3,2 km/h (1 Bft)
17.07.2013 04:00 14,4 C 77 % 1018,2 hPa 0,0 l/m N-NW 0,00 h 0 W/m 6,8 km/h (2 Bft)
17.07.2013 05:00 14,0 C 78 % 1018,4 hPa 0,0 l/m N-NW 0,00 h 7 W/m 5,7 km/h (1 Bft)
17.07.2013 06:00 13,7 C 81 % 1018,6 hPa 0,0 l/m N 0,00 h 37 W/m 2,4 km/h (1 Bft)
17.07.2013 07:00 15,6 C 76 % 1018,6 hPa 0,0 l/m N-NW 0,67 h 164 W/m 3,9 km/h (1 Bft)
17.07.2013 08:00 18,4 C 68 % 1018,5 hPa 0,0 l/m N-NO 1,00 h 328 W/m 5,9 km/h (2 Bft)
17.07.2013 09:00 20,8 C 62 % 1018,6 hPa 0,0 l/m N-NO 1,00 h 475 W/m 7,8 km/h (2 Bft)
17.07.2013 10:00 23,3 C 50 % 1018,4 hPa 0,0 l/m O-SO 1,00 h 629 W/m 13,0 km/h (3 Bft)
17.07.2013 11:00 24,8 C 42 % 1018,4 hPa 0,0 l/m O-NO 1,00 h 753 W/m 14,1 km/h (3 Bft)
17.07.2013 12:00 26,0 C 38 % 1018,1 hPa 0,0 l/m O 1,00 h 818 W/m 17,0 km/h (3 Bft)
17.07.2013 13:00 26,8 C 37 % 1017,9 hPa 0,0 l/m O 0,92 h 844 W/m 15,8 km/h (3 Bft)
17.07.2013 14:00 27,7 C 35 % 1017,5 hPa 0,0 l/m O 1,00 h 844 W/m 14,5 km/h (3 Bft)
17.07.2013 15:00 28,4 C 35 % 1017,1 hPa 0,0 l/m N-NO 1,00 h 784 W/m 13,0 km/h (3 Bft)
17.07.2013 16:00 28,3 C 35 % 1016,6 hPa 0,0 l/m O-NO 1,00 h 630 W/m 15,6 km/h (3 Bft)
17.07.2013 17:00 27,9 C 37 % 1016,5 hPa 0,0 l/m N-NO 0,83 h 478 W/m 13,8 km/h (3 Bft)
17.07.2013 18:00 27,5 C 39 % 1016,2 hPa 0,0 l/m NO 0,83 h 305 W/m 13,4 km/h (3 Bft)
17.07.2013 19:00 26,4 C 41 % 1016,1 hPa 0,0 l/m O-NO 0,67 h 151 W/m 12,0 km/h (2 Bft)
17.07.2013 20:00 24,1 C 48 % 1016,4 hPa 0,0 l/m O-NO 0,00 h 28 W/m 5,3 km/h (1 Bft)
17.07.2013 21:00 21,4 C 59 % 1016,9 hPa 0,0 l/m N 0,00 h 6 W/m 1,6 km/h (1 Bft)
17.07.2013 22:00 20,4 C 62 % 1017,3 hPa 0,0 l/m N 0,00 h 0 W/m 1,3 km/h (1 Bft)
17.07.2013 23:00 20,0 C 64 % 1017,4 hPa 0,0 l/m NO 0,00 h 0 W/m 2,8 km/h (1 Bft)
18.07.2013 00:00 19,8 C 63 % 1017,5 hPa 0,0 l/m N 0,00 h 0 W/m 5,5 km/h (1 Bft)
18.07.2013 01:00 18,9 C 68 % 1017,5 hPa 0,0 l/m SW 0,00 h 0 W/m 2,5 km/h (1 Bft)
18.07.2013 02:00 18,2 C 72 % 1017,1 hPa 0,0 l/m N 0,00 h 0 W/m 2,4 km/h (1 Bft)
18.07.2013 03:00 18,0 C 72 % 1016,8 hPa 0,0 l/m N 0,00 h 0 W/m 2,4 km/h (1 Bft)
18.07.2013 04:00 17,9 C 73 % 1016,6 hPa 0,0 l/m W-NW 0,00 h 0 W/m 2,0 km/h (1 Bft)
18.07.2013 05:00 17,6 C 73 % 1016,6 hPa 0,0 l/m NW 0,00 h 5 W/m 5,1 km/h (1 Bft)
18.07.2013 06:00 17,3 C 75 % 1016,8 hPa 0,0 l/m N-NW 0,00 h 24 W/m 6,4 km/h (2 Bft)
18.07.2013 07:00 17,6 C 76 % 1016,9 hPa 0,0 l/m N 0,08 h 87 W/m 8,0 km/h (2 Bft)
18.07.2013 08:00 18,6 C 73 % 1016,9 hPa 0,0 l/m N-NO 0,00 h 144 W/m 7,9 km/h (2 Bft)
18.07.2013 09:00 20,8 C 66 % 1016,8 hPa 0,0 l/m O-NO 0,83 h 466 W/m 11,6 km/h (2 Bft)
18.07.2013 10:00 22,7 C 60 % 1016,7 hPa 0,0 l/m NO 1,00 h 609 W/m 13,8 km/h (3 Bft)
18.07.2013 11:00 24,9 C 54 % 1016,5 hPa 0,0 l/m O-NO 1,00 h 726 W/m 17,3 km/h (3 Bft)
18.07.2013 12:00 26,0 C 49 % 1016,2 hPa 0,0 l/m O-NO 1,00 h 814 W/m 20,5 km/h (4 Bft)
18.07.2013 13:00 27,2 C 44 % 1015,9 hPa 0,0 l/m O-NO 0,92 h 821 W/m 23,7 km/h (4 Bft)
18.07.2013 14:00 28,0 C 39 % 1015,7 hPa 0,0 l/m O 0,92 h 753 W/m 26,9 km/h (4 Bft)
18.07.2013 15:00 27,2 C 40 % 1015,3 hPa 0,0 l/m O-NO 0,08 h 303 W/m 23,7 km/h (4 Bft)
18.07.2013 16:00 27,5 C 41 % 1015,1 hPa 0,0 l/m NO 0,58 h 522 W/m 24,1 km/h (4 Bft)
18.07.2013 17:00 27,6 C 40 % 1014,9 hPa 0,0 l/m NO 0,67 h 414 W/m 22,0 km/h (4 Bft)
18.07.2013 18:00 27,3 C 41 % 1015,1 hPa 0,0 l/m O 0,50 h 275 W/m 18,8 km/h (3 Bft)
18.07.2013 19:00 25,8 C 44 % 1015,3 hPa 0,0 l/m O-NO 0,42 h 132 W/m 13,8 km/h (3 Bft)
18.07.2013 20:00 24,2 C 49 % 1015,5 hPa 0,0 l/m NO 0,25 h 42 W/m 7,4 km/h (2 Bft)
18.07.2013 21:00 22,7 C 53 % 1016,0 hPa 0,0 l/m O-NO 0,08 h 6 W/m 8,7 km/h (2 Bft)
18.07.2013 22:00 22,1 C 55 % 1016,4 hPa 0,0 l/m O-NO 0,00 h 0 W/m 8,3 km/h (2 Bft)
18.07.2013 23:00 20,4 C 65 % 1016,8 hPa 0,0 l/m SW 0,00 h 0 W/m 7,6 km/h (2 Bft)
19.07.2013 00:00 18,7 C 72 % 1016,8 hPa 0,0 l/m SW 0,00 h 0 W/m 2,3 km/h (1 Bft)
19.07.2013 01:00 17,3 C 78 % 1016,3 hPa 0,0 l/m N 0,00 h 0 W/m 1,1 km/h (0 Bft)
19.07.2013 02:00 16,8 C 80 % 1016,0 hPa 0,0 l/m NW 0,00 h 0 W/m 6,7 km/h (2 Bft)
19.07.2013 03:00 16,6 C 77 % 1015,8 hPa 0,0 l/m N-NW 0,00 h 0 W/m 6,6 km/h (2 Bft)
19.07.2013 04:00 16,3 C 76 % 1015,5 hPa 0,0 l/m N 0,00 h 0 W/m 7,1 km/h (2 Bft)
19.07.2013 05:00 15,5 C 78 % 1015,7 hPa 0,0 l/m N 0,00 h 6 W/m 4,7 km/h (1 Bft)
19.07.2013 06:00 15,6 C 79 % 1016,0 hPa 0,0 l/m N 0,00 h 32 W/m 2,8 km/h (1 Bft)
19.07.2013 07:00 17,1 C 75 % 1016,4 hPa 0,0 l/m N 0,17 h 134 W/m 5,9 km/h (2 Bft)
19.07.2013 08:00 18,8 C 70 % 1016,6 hPa 0,0 l/m N-NO 0,50 h 243 W/m 10,3 km/h (2 Bft)
19.07.2013 09:00 20,1 C 68 % 1016,7 hPa 0,0 l/m O-NO 0,50 h 340 W/m 10,8 km/h (2 Bft)
19.07.2013 10:00 22,3 C 64 % 1016,5 hPa 0,0 l/m O-NO 1,00 h 581 W/m 13,0 km/h (3 Bft)
19.07.2013 11:00 24,1 C 58 % 1016,3 hPa 0,0 l/m O 1,00 h 711 W/m 14,6 km/h (3 Bft)
19.07.2013 12:00 25,7 C 53 % 1016,0 hPa 0,0 l/m O-NO 1,00 h 794 W/m 18,6 km/h (3 Bft)
19.07.2013 13:00 27,1 C 47 % 1015,6 hPa 0,0 l/m O-SO 0,83 h 747 W/m 20,8 km/h (4 Bft)
19.07.2013 14:00 27,3 C 45 % 1015,4 hPa 0,0 l/m O-NO 0,83 h 783 W/m 20,4 km/h (4 Bft)
19.07.2013 15:00 27,7 C 43 % 1015,0 hPa 0,0 l/m O-NO 0,75 h 643 W/m 17,8 km/h (3 Bft)
19.07.2013 16:00 28,2 C 41 % 1014,4 hPa 0,0 l/m O 0,83 h 593 W/m 17,7 km/h (3 Bft)
19.07.2013 17:00 28,0 C 41 % 1014,0 hPa 0,0 l/m O-NO 0,92 h 493 W/m 18,6 km/h (3 Bft)
19.07.2013 18:00 27,8 C 39 % 1014,1 hPa 0,0 l/m O-NO 1,00 h 368 W/m 16,5 km/h (3 Bft)
19.07.2013 19:00 26,9 C 42 % 1014,2 hPa 0,0 l/m O-NO 1,00 h 195 W/m 16,2 km/h (3 Bft)
19.07.2013 20:00 25,1 C 47 % 1014,2 hPa 0,0 l/m O-NO 0,25 h 38 W/m 8,2 km/h (2 Bft)
19.07.2013 21:00 21,9 C 59 % 1014,5 hPa 0,0 l/m N 0,00 h 6 W/m 1,1 km/h (0 Bft)
19.07.2013 22:00 19,9 C 66 % 1014,9 hPa 0,0 l/m N 0,00 h 0 W/m 0,4 km/h (0 Bft)
19.07.2013 23:00 19,7 C 67 % 1015,3 hPa 0,0 l/m N 0,00 h 0 W/m 1,6 km/h (1 Bft)
20.07.2013 00:00 18,6 C 71 % 1015,4 hPa 0,0 l/m N 0,00 h 0 W/m 2,1 km/h (1 Bft)
20.07.2013 01:00 17,5 C 74 % 1015,4 hPa 0,0 l/m O-NO 0,00 h 0 W/m 2,3 km/h (1 Bft)
20.07.2013 02:00 17,0 C 74 % 1015,4 hPa 0,0 l/m N 0,00 h 0 W/m 3,1 km/h (1 Bft)
20.07.2013 03:00 16,8 C 74 % 1015,3 hPa 0,0 l/m O-NO 0,00 h 0 W/m 3,9 km/h (1 Bft)
20.07.2013 04:00 16,6 C 74 % 1014,9 hPa 0,0 l/m O-NO 0,00 h 0 W/m 5,9 km/h (2 Bft)
20.07.2013 05:00 15,9 C 78 % 1014,7 hPa 0,0 l/m N-NO 0,08 h 7 W/m 4,9 km/h (1 Bft)
20.07.2013 06:00 15,8 C 79 % 1014,8 hPa 0,0 l/m N 0,00 h 34 W/m 3,1 km/h (1 Bft)
20.07.2013 07:00 17,3 C 76 % 1015,0 hPa 0,0 l/m N-NO 0,58 h 154 W/m 2,9 km/h (1 Bft)
20.07.2013 08:00 19,4 C 69 % 1015,3 hPa 0,0 l/m O-NO 1,00 h 315 W/m 7,8 km/h (2 Bft)
20.07.2013 09:00 20,8 C 66 % 1015,5 hPa 0,0 l/m O-NO 1,00 h 478 W/m 9,3 km/h (2 Bft)
20.07.2013 10:00 22,7 C 62 % 1015,3 hPa 0,0 l/m NO 1,00 h 628 W/m 11,0 km/h (2 Bft)
20.07.2013 11:00 24,6 C 57 % 1015,3 hPa 0,0 l/m NO 1,00 h 740 W/m 14,1 km/h (3 Bft)
20.07.2013 12:00 26,1 C 51 % 1014,9 hPa 0,0 l/m O-NO 1,00 h 820 W/m 17,0 km/h (3 Bft)
20.07.2013 13:00 26,7 C 48 % 1014,7 hPa 0,0 l/m O-NO 0,83 h 706 W/m 17,6 km/h (3 Bft)
20.07.2013 14:00 27,9 C 43 % 1014,4 hPa 0,0 l/m O-NO 1,00 h 845 W/m 16,8 km/h (3 Bft)
20.07.2013 15:00 28,3 C 42 % 1014,1 hPa 0,0 l/m NO 0,83 h 705 W/m 16,1 km/h (3 Bft)
20.07.2013 16:00 28,8 C 40 % 1013,7 hPa 0,0 l/m O-SO 1,00 h 678 W/m 16,9 km/h (3 Bft)
20.07.2013 17:00 28,3 C 42 % 1013,5 hPa 0,0 l/m O-NO 0,50 h 378 W/m 15,4 km/h (3 Bft)
20.07.2013 18:00 27,7 C 43 % 1013,3 hPa 0,0 l/m NO 1,00 h 366 W/m 16,4 km/h (3 Bft)
20.07.2013 19:00 27,0 C 43 % 1013,2 hPa 0,0 l/m O-NO 0,83 h 168 W/m 16,6 km/h (3 Bft)
20.07.2013 20:00 25,2 C 48 % 1013,5 hPa 0,0 l/m O-NO 0,00 h 38 W/m 10,6 km/h (2 Bft)
20.07.2013 21:00 22,1 C 59 % 1014,1 hPa 0,0 l/m N 0,08 h 6 W/m 1,7 km/h (1 Bft)
20.07.2013 22:00 20,2 C 66 % 1014,7 hPa 0,0 l/m N 0,00 h 0 W/m 1,7 km/h (1 Bft)
20.07.2013 23:00 19,5 C 69 % 1014,8 hPa 0,0 l/m N 0,00 h 0 W/m 1,9 km/h (1 Bft)
21.07.2013 00:00 18,9 C 72 % 1015,2 hPa 0,0 l/m N-NO 0,00 h 0 W/m 3,7 km/h (1 Bft)
21.07.2013 01:00 18,2 C 75 % 1015,2 hPa 0,0 l/m N 0,00 h 0 W/m 2,3 km/h (1 Bft)
21.07.2013 02:00 17,3 C 79 % 1015,3 hPa 0,0 l/m N 0,00 h 0 W/m 1,1 km/h (0 Bft)
21.07.2013 03:00 16,8 C 81 % 1015,3 hPa 0,0 l/m N-NO 0,00 h 0 W/m 3,6 km/h (1 Bft)
21.07.2013 04:00 16,1 C 83 % 1015,5 hPa 0,0 l/m N 0,00 h 0 W/m 7,1 km/h (2 Bft)
21.07.2013 05:00 15,4 C 85 % 1015,7 hPa 0,0 l/m N 0,00 h 6 W/m 6,1 km/h (2 Bft)
21.07.2013 06:00 15,1 C 87 % 1015,8 hPa 0,0 l/m N 0,00 h 33 W/m 5,9 km/h (2 Bft)
21.07.2013 07:00 16,6 C 83 % 1016,1 hPa 0,0 l/m N 0,58 h 156 W/m 7,8 km/h (2 Bft)
21.07.2013 08:00 18,7 C 76 % 1016,1 hPa 0,0 l/m NO 1,00 h 322 W/m 10,3 km/h (2 Bft)
21.07.2013 09:00 20,6 C 71 % 1016,3 hPa 0,0 l/m N-NO 1,00 h 486 W/m 10,3 km/h (2 Bft)
21.07.2013 10:00 22,5 C 65 % 1016,3 hPa 0,0 l/m NO 1,00 h 634 W/m 11,4 km/h (2 Bft)
21.07.2013 11:00 24,6 C 58 % 1016,0 hPa 0,0 l/m O 1,00 h 752 W/m 13,2 km/h (3 Bft)
21.07.2013 12:00 26,3 C 52 % 1015,7 hPa 0,0 l/m O-NO 1,00 h 836 W/m 15,0 km/h (3 Bft)
21.07.2013 13:00 27,2 C 47 % 1015,7 hPa 0,0 l/m O-NO 1,00 h 878 W/m 16,9 km/h (3 Bft)
21.07.2013 14:00 28,3 C 42 % 1015,5 hPa 0,0 l/m O-NO 1,00 h 859 W/m 16,5 km/h (3 Bft)
21.07.2013 15:00 29,1 C 40 % 1015,1 hPa 0,0 l/m O-SO 1,00 h 786 W/m 15,7 km/h (3 Bft)
21.07.2013 16:00 29,5 C 39 % 1015,0 hPa 0,0 l/m O 1,00 h 681 W/m 14,4 km/h (3 Bft)
21.07.2013 17:00 29,4 C 40 % 1014,8 hPa 0,0 l/m O 1,00 h 544 W/m 16,0 km/h (3 Bft)
21.07.2013 18:00 28,8 C 40 % 1014,5 hPa 0,0 l/m O-NO 1,00 h 384 W/m 13,0 km/h (3 Bft)
21.07.2013 19:00 27,7 C 43 % 1014,6 hPa 0,0 l/m O-SO 1,00 h 208 W/m 11,9 km/h (2 Bft)
21.07.2013 20:00 25,9 C 50 % 1014,8 hPa 0,0 l/m O 0,25 h 37 W/m 5,3 km/h (1 Bft)
21.07.2013 21:00 22,1 C 64 % 1015,2 hPa 0,0 l/m N 0,00 h 6 W/m 1,2 km/h (1 Bft)
21.07.2013 22:00 20,4 C 69 % 1015,6 hPa 0,0 l/m N 0,00 h 0 W/m 0,9 km/h (0 Bft)
21.07.2013 23:00 19,2 C 74 % 1015,6 hPa 0,0 l/m N 0,00 h 0 W/m 0,4 km/h (0 Bft)
Min-Datum _ 16.07.13 16.07.13 20.07.13 - - - - 15.07.13
_ Min-Zeit 05:50 17:15 18:35 - - - - 00:20
Minimum _ 12,1 C 30 % 1013,1 hPa - - - - 0,0 km/h (0 Bft)
Max-Datum _ 21.07.13 15.07.13 16.07.13 15.07.13 - 15.07.13 18.07.13 18.07.13
_ Max-Zeit 16:10 06:15 00:55 00:00 - 05:50 14:35 14:50
Maximum _ 29,7 C 90 % 1020,5 hPa 0,0 l/m - 0,08 h 1013 W/m 35,4 km/h
O (5 Bft)
Durchschnitt _ 21,4 C 60 % 1016,7 hPa #0,0 l/m O-NO #80:20 h 419 W/m 9,1 km/h (2 Bft)